Flight Track Log - Related Links

Times and Time Zones

All times are in EDT time to prevent confusion due to time zone crossing. See the N180KT flight status page for this flight to view local times or setup timezone preferences in your user account.


Time Position Orientation Groundspeed Altitude Reporting Facility
EDT Latitude Longitude Course Direction KTS MPH feet Rate Location/Type
Sun 01:58:00 PM 36.0334 -79.7534 270° West  Level FlightAware Approximate
Sun 01:59:00 PM 36.0333 -79.8012 270° West  Level FlightAware Approximate
Sun 02:00:00 PM 36.0333 -79.8490 270° West  Level FlightAware Approximate
Sun 02:01:00 PM 36.0334 -79.8968 270° West  Level FlightAware Approximate
Sun 02:02:00 PM 36.0333 -79.9445 270° West  Level FlightAware Approximate
Sun 02:03:00 PM 36.0371 -79.9919 280° West  Level FlightAware Approximate
Sun 02:04:00 PM 36.0441 -80.0389 280° West  Level FlightAware Approximate
Sun 02:05:00 PM 36.0511 -80.0859 280° West  Level FlightAware Approximate
Sun 02:06:00 PM 36.0581 -80.1329 280° West  Level FlightAware Approximate
Sun 02:07:00 PM 36.0650 -80.1799 280° West  Level FlightAware Approximate
Sun 02:08:00 PM 36.0720 -80.2270 280° West  Level FlightAware Approximate
Sun 02:09:00 PM 36.0789 -80.2740 280° West  Level FlightAware Approximate
Sun 02:10:00 PM 36.0858 -80.3211 280° West  Level FlightAware Approximate
Sun 02:10:22 PM 36.0069 -80.2808 253° West 135 155 8,000  Level Atlanta Center
Sun 02:11:00 PM 36.0927 -80.3681 280° West  Level FlightAware Approximate
Sun 02:11:22 PM 36.0000 -80.3247 259° West 135 155 8,000  Level Atlanta Center
Sun 02:12:00 PM 36.0995 -80.4152 280° West  Level FlightAware Approximate
Sun 02:12:22 PM 35.9950 -80.3711 262° West 128 147 8,100  Level Atlanta Center
Sun 02:13:00 PM 36.1064 -80.4623 280° West  Level FlightAware Approximate
Sun 02:13:22 PM 35.9900 -80.4100 261° West 135 155 8,000  Level Atlanta Center
Sun 02:14:00 PM 36.1132 -80.5094 280° West  Level FlightAware Approximate
Sun 02:14:22 PM 35.9850 -80.4514 262° West 135 155 8,100  Level Atlanta Center
Sun 02:15:00 PM 36.1111 -80.5558 253° West  Level FlightAware Approximate
Sun 02:15:22 PM 35.9781 -80.4978 260° West 135 155 8,100  Level Atlanta Center
Sun 02:16:22 PM 35.9711 -80.5442 260° West 135 155 8,000 -50 Descending Atlanta Center
Sun 02:17:22 PM 35.9639 -80.5881 259° West 140 161 8,000  Level Atlanta Center
Sun 02:18:22 PM 35.9589 -80.6372 263° West 140 161 8,000  Level Atlanta Center
Sun 02:19:22 PM 35.9519 -80.6836 260° West 140 161 8,000  Level Atlanta Center
Sun 02:20:22 PM 35.9469 -80.7275 262° West 140 161 8,000  Level Atlanta Center
Sun 02:21:22 PM 35.9397 -80.7739 259° West 140 161 8,000  Level Atlanta Center
Sun 02:22:22 PM 35.9325 -80.8178 259° West 140 161 8,000 50 Level Atlanta Center
Sun 02:23:22 PM 35.9275 -80.8589 261° West 140 161 8,100  Climbing Atlanta Center
Sun 02:24:22 PM 35.9203 -80.9081 260° West 140 161 8,000 -50 Descending Atlanta Center
Sun 02:25:22 PM 35.9150 -80.9492 261° West 140 161 8,000 50 Level Atlanta Center
Sun 02:26:22 PM 35.9078 -80.9956 259° West 140 161 8,100  Climbing Atlanta Center
Sun 02:27:22 PM 35.9028 -81.0419 262° West 140 161 8,000 -50 Descending Atlanta Center
Sun 02:28:22 PM 35.8956 -81.0858 259° West 140 161 8,000  Level Atlanta Center
Sun 02:29:22 PM 35.8903 -81.1269 261° West 140 161 8,000  Level Atlanta Center
Sun 02:30:22 PM 35.8831 -81.1708 259° West 140 161 8,000  Level Atlanta Center
Sun 02:31:22 PM 35.8778 -81.2172 262° West 140 161 8,000  Level Atlanta Center
Sun 02:32:22 PM 35.8661 -81.2611 252° West 140 161 8,000 50 Level Atlanta Center
Sun 02:33:22 PM 35.8483 -81.3053 244° Southwest 146 168 8,100  Climbing Atlanta Center
Sun 02:34:22 PM 35.8306 -81.3442 241° Southwest 146 168 8,000 -50 Descending Atlanta Center
Sun 02:35:22 PM 35.8147 -81.3806 242° Southwest 136 157 8,000  Level Atlanta Center
Sun 02:36:22 PM 35.7967 -81.4197 240° Southwest 130 150 8,000  Level Atlanta Center
Sun 02:37:22 PM 35.7767 -81.4611 239° Southwest 135 155 8,000 50 Level Atlanta Center
Sun 02:38:22 PM 35.7589 -81.5003 241° Southwest 135 155 8,100 50 Climbing Atlanta Center
Sun 02:39:22 PM 35.7428 -81.5364 241° Southwest 124 143 8,100 -50 Level Atlanta Center
Sun 02:40:22 PM 35.7250 -81.5831 245° Southwest 139 160 8,000  Descending Atlanta Center
Sun 02:41:22 PM 35.7050 -81.6247 239° Southwest 139 160 8,100 50 Climbing Atlanta Center
Sun 02:42:22 PM 35.6869 -81.6661 242° Southwest 139 160 8,100  Level Atlanta Center
Sun 02:43:22 PM 35.6669 -81.7075 239° Southwest 139 160 8,100 -50 Level Atlanta Center
Sun 02:44:22 PM 35.6489 -81.7489 242° Southwest 139 160 8,000 -50 Descending Atlanta Center
Sun 02:45:22 PM 35.6308 -81.7903 242° Southwest 139 160 8,000  Level Atlanta Center
Sun 02:46:22 PM 35.6128 -81.8292 240° Southwest 139 160 8,000 50 Level Atlanta Center
Sun 02:47:22 PM 35.5947 -81.8731 243° Southwest 139 160 8,100  Climbing Atlanta Center
Sun 02:48:22 PM 35.5747 -81.9144 239° Southwest 139 160 8,000  Descending Atlanta Center
Sun 02:49:22 PM 35.5567 -81.9531 240° Southwest 144 166 8,100 50 Climbing Atlanta Center
Sun 02:50:22 PM 35.5386 -81.9994 244° Southwest 144 166 8,100  Level Atlanta Center
Sun 02:51:22 PM 35.5183 -82.0408 239° Southwest 144 166 8,100  Level Atlanta Center
Sun 02:52:22 PM 35.5003 -82.0822 242° Southwest 144 166 8,100  Level Atlanta Center
Sun 02:53:22 PM 35.4822 -82.1183 238° Southwest 144 166 8,100  Level Atlanta Center
Sun 02:54:22 PM 35.4639 -82.1569 240° Southwest 142 163 8,100  Level Atlanta Center
Sun 02:55:22 PM 35.4458 -82.2008 243° Southwest 140 161 8,100  Level Atlanta Center
Sun 02:57:00 PM 35.4049 -82.2596 230° Southwest  Level FlightAware Approximate
Sun 03:02:46 PM 35.2619 -82.4922 231° Southwest 144 166 8,100  Level Atlanta Center
Sun 03:03:46 PM 35.2375 -82.5258 228° Southwest 144 166 8,100  Level Atlanta Center
Sun 03:04:00 PM 35.2273 -82.5114 229° Southwest  Level FlightAware Approximate
Sun 03:04:46 PM 35.2150 -82.5669 236° Southwest 155 178 8,100  Level Atlanta Center
Sun 03:05:00 PM 35.2021 -82.5471 229° Southwest  Level FlightAware Approximate
Sun 03:05:46 PM 35.1819 -82.6031 222° Southwest 148 170 8,100  Level Atlanta Center
Sun 03:06:00 PM 35.1776 -82.5836 231° Southwest  Level FlightAware Approximate
Sun 03:06:46 PM 35.1575 -82.6442 234° Southwest 160 184 8,100  Level Atlanta Center
Sun 03:07:00 PM 35.1533 -82.6202 231° Southwest  Level FlightAware Approximate
Sun 03:07:46 PM 35.1308 -82.6853 232° Southwest 160 184 8,100  Level Atlanta Center
Sun 03:08:46 PM 35.1000 -82.7264 227° Southwest 160 184 8,100  Level Atlanta Center
Sun 03:09:46 PM 35.0711 -82.7672 229° Southwest 159 183 8,100  Level Atlanta Center
Sun 03:10:46 PM 35.0403 -82.8108 229° Southwest 173 199 8,100  Level Atlanta Center
Sun 03:11:46 PM 35.0156 -82.8494 232° Southwest 168 193 8,100  Level Atlanta Center
Sun 03:12:46 PM 34.9931 -82.8953 239° Southwest 168 193 8,100  Level Atlanta Center
Sun 03:13:46 PM 34.9958 -82.9511 273° West 161 185 8,100  Level Atlanta Center
Sun 03:14:46 PM 34.9942 -82.9992 268° West 155 178 8,100  Level Atlanta Center
Sun 03:15:46 PM 34.9883 -83.0525 262° West 155 178 8,100  Level Atlanta Center
Sun 03:16:46 PM 34.9864 -83.1008 267° West 155 178 8,100  Level Atlanta Center
Sun 03:17:46 PM 34.9847 -83.1464 267° West 154 177 8,100  Level Atlanta Center
Sun 03:18:46 PM 34.9808 -83.1972 265° West 154 177 8,100  Level Atlanta Center
Sun 03:19:46 PM 34.9814 -83.2428 271° West 159 183 8,100  Level Atlanta Center
Sun 03:20:46 PM 34.9794 -83.2808 266° West 159 183 8,100  Level Atlanta Center
Sun 03:21:46 PM 34.9756 -83.3289 264° West 148 170 8,100  Level Atlanta Center
Sun 03:22:46 PM 34.9736 -83.3797 267° West 148 170 8,100  Level Atlanta Center
Sun 03:23:46 PM 34.9739 -83.4253 270° West 143 165 8,100  Level Atlanta Center
Sun 03:24:46 PM 34.9681 -83.4811 263° West 155 178 8,100 -50 Level Atlanta Center
Sun 03:25:46 PM 34.9639 -83.5319 264° West 160 184 8,000  Descending Atlanta Center
Sun 03:26:46 PM 34.9664 -83.5825 273° West 160 184 8,100 50 Climbing Atlanta Center
Sun 03:27:46 PM 34.9644 -83.6333 267° West 155 178 8,100  Level Atlanta Center
Sun 03:28:46 PM 34.9603 -83.6814 264° West 155 178 8,100  Level Atlanta Center
Sun 03:29:46 PM 34.9583 -83.7297 267° West 155 178 8,100  Level Atlanta Center
Sun 03:30:46 PM 34.9544 -83.7778 264° West 148 170 8,100  Level Atlanta Center
Sun 03:31:46 PM 34.9544 -83.8233 270° West 143 165 8,100  Level Atlanta Center
Sun 03:32:46 PM 34.9525 -83.8742 267° West 143 165 8,100  Level Atlanta Center
Sun 03:33:46 PM 34.9483 -83.9222 264° West 148 170 8,100  Level Atlanta Center
Sun 03:34:46 PM 34.9506 -83.9728 273° West 148 170 8,100  Level Atlanta Center
Sun 03:35:46 PM 34.9506 -84.0236 270° West 148 170 8,100  Level Atlanta Center
Sun 03:36:46 PM 34.9506 -84.0717 270° West 148 170 8,100  Level Atlanta Center
Sun 03:37:46 PM 34.9525 -84.1197 273° West 148 170 8,100  Level Atlanta Center
Sun 03:38:46 PM 34.9525 -84.1706 270° West 148 170 8,100 50 Level Atlanta Center
Sun 03:39:46 PM 34.9525 -84.2186 270° West 148 170 8,200 50 Climbing Atlanta Center
Sun 03:40:46 PM 34.9544 -84.2669 273° West 148 170 8,200  Level Atlanta Center
Sun 03:41:46 PM 34.9564 -84.3150 273° West 148 170 8,200  Level Atlanta Center
Sun 03:42:46 PM 34.9564 -84.3631 270° West 148 170 8,200  Level Atlanta Center
Sun 03:43:46 PM 34.9583 -84.4114 273° West 143 165 8,200  Level Atlanta Center
Sun 03:44:46 PM 34.9581 -84.4594 270° West 143 165 8,200  Level Atlanta Center
Sun 03:45:46 PM 34.9578 -84.5075 270° West 143 165 8,200  Level Atlanta Center
Sun 03:46:46 PM 34.9597 -84.5558 273° West 143 165 8,200  Level Atlanta Center
Sun 03:47:46 PM 34.9597 -84.6039 270° West 143 165 8,200  Level Atlanta Center
Sun 03:48:46 PM 34.9614 -84.6522 272° West 143 165 8,200 -29 Level Atlanta Center
Sun 03:50:00 PM 34.9580 -84.7122 266° West  Level FlightAware Approximate
Sun 03:57:00 PM 34.9501 -85.0538 270° West  Level FlightAware Approximate
Sun 03:58:00 PM 34.9501 -85.1025 270° West  Level FlightAware Approximate
Sun 03:59:00 PM 34.9493 -85.1510 229° Southwest  Level FlightAware Approximate
Sun 04:00:00 PM 34.9228 -85.1876 229° Southwest  Level FlightAware Approximate
Sun 04:01:00 PM 34.8964 -85.2241 229° Southwest  Level FlightAware Approximate
Sun 04:02:00 PM 34.8699 -85.2606 229° Southwest  Level FlightAware Approximate
Sun 04:03:00 PM 34.8434 -85.2971 229° Southwest  Level FlightAware Approximate
Sun 04:04:00 PM 34.8169 -85.3335 228° Southwest  Level FlightAware Approximate
Sun 04:04:46 PM 34.7967 -85.4072 228° Southwest 176 203 7,700  Level Atlanta Center
Sun 04:05:00 PM 34.7904 -85.3700 228° Southwest  Level FlightAware Approximate
Sun 04:05:46 PM 34.7631 -85.4394 218° Southwest 167 192 8,000  Level Atlanta Center
Sun 04:06:00 PM 34.7638 -85.4064 228° Southwest  Level FlightAware Approximate
Sun 04:06:46 PM 34.7356 -85.4744 226° Southwest 159 183 8,000  Level Atlanta Center
Sun 04:07:00 PM 34.7373 -85.4428 228° Southwest  Level FlightAware Approximate
Sun 04:07:46 PM 34.7078 -85.5219 235° Southwest 159 183 8,000  Level Atlanta Center
Sun 04:08:00 PM 34.7108 -85.4791 228° Southwest  Level FlightAware Approximate
Sun 04:08:46 PM 34.6761 -85.5567 222° Southwest 159 183 8,000  Level Atlanta Center
Sun 04:09:46 PM 34.6464 -85.5992 230° Southwest 159 183 8,000  Level Atlanta Center
Sun 04:10:46 PM 34.6167 -85.6389 228° Southwest 159 183 8,000  Level Atlanta Center
Sun 04:11:46 PM 34.5847 -85.6814 228° Southwest 159 183 8,000  Level Atlanta Center
Sun 04:12:46 PM 34.5569 -85.7236 231° Southwest 159 183 8,000  Level Atlanta Center
Sun 04:13:46 PM 34.5253 -85.7658 228° Southwest 159 183 8,000  Level Atlanta Center
Sun 04:14:46 PM 34.4956 -85.8031 226° Southwest 159 183 8,000 -200 Level Atlanta Center
Sun 04:15:46 PM 34.4656 -85.8428 228° Southwest 159 183 7,600 -500 Descending Atlanta Center
Sun 04:16:46 PM 34.4422 -85.8750 229° Southwest 154 177 7,000 -550 Descending Atlanta Center
Sun 04:17:46 PM 34.4167 -85.9072 226° Southwest 148 170 6,500 -500 Descending Atlanta Center
Sun 04:18:46 PM 34.4056 -85.9522 253° West 141 162 6,000 -550 Descending Atlanta Center
Sun 04:19:46 PM 34.3839 -85.9944 238° Southwest 140 161 5,400 -600 Descending Atlanta Center

Login

Don't have an account? Register now (free) for customized features, flight alerts, and more!